Greta — J8B5386 — position and weather

sailwx.info

Track history (hours):
 
Tides and Currents Weather Stations Pressure Air Temp Water Temp Dewpoint Dewpoint Depression Visibility Wind Speed Wind Dir Waves Ship Positions

Greta

Last reported at 2017-Nov-23 17:53 UTC. Time now 2017-Nov-23 18:42 UTC.
Position N 51°23' W 003°56'.

Length 100 m; draft 4.4 m.

Type: Cargo ship. MMSI: 377793000.

Date/timePositionNaut miles runAvg speedWind from/ knotsBaromVisibWave heightAir tempDewpointWater temp
2017-Nov-23 17:53N 51°23' W 003°56'3 7.2
2017-Nov-23 17:30N 51°22' W 003°52'5 6.9
2017-Nov-23 16:42N 51°21' W 003°43'2 7.7
2017-Nov-23 16:26N 51°20' W 003°40'  
2017-Nov-19 22:32N 53°34' W 005°56'0 9.9
2017-Nov-19 22:29N 53°34' W 005°57'1710.8
2017-Nov-19 20:58N 53°51' W 005°60'511.9
2017-Nov-19 20:30N 53°56' W 005°60'6 9.8
2017-Nov-19 19:53N 54°01' W 006°05'510.3
2017-Nov-19 19:24N 54°04' W 006°12'3 0.6
2017-Nov-19 14:29N 54°06' W 006°16'3 7.3
2017-Nov-19 14:00N 54°04' W 006°11'611.8
2017-Nov-19 13:30N 54°00' W 006°03'510.8
2017-Nov-19 13:00N 53°55' W 005°60'713.4
2017-Nov-19 12:30N 53°49' W 005°59'713.5
2017-Nov-19 12:00N 53°42' W 005°59'713.5
2017-Nov-19 11:28N 53°35' W 005°59'70 5.5
2017-Nov-18 22:52N 52°26' W 005°41'3 8.9
2017-Nov-18 22:30N 52°23' W 005°40'5 9.1
2017-Nov-18 22:00N 52°18' W 005°38'5 9.6
2017-Nov-18 21:29N 52°13' W 005°37'3211.0
2017-Nov-18 18:36N 51°43' W 005°25'212.3
2017-Nov-18 18:28N 51°41' W 005°25'511.2
2017-Nov-18 18:00N 51°38' W 005°18'510.4
2017-Nov-18 17:30N 51°35' W 005°11'510.4
2017-Nov-18 17:00N 51°32' W 005°04'5 9.7
2017-Nov-18 16:30N 51°30' W 004°57'5 9.3
2017-Nov-18 16:01N 51°29' W 004°50'6 9.6
2017-Nov-18 15:26N 51°28' W 004°41'30 9.4
2017-Nov-18 12:17N 51°22' W 003°55'4 9.8
2017-Nov-18 11:52N 51°22' W 003°48'1811.3
2017-Nov-18 10:16N 51°21' W 003°19'312.3
2017-Nov-18 10:00N 51°21' W 003°14'611.5
2017-Nov-18 09:30N 51°23' W 003°05'815.2
2017-Nov-18 09:01N 51°27' W 002°55'815.1
2017-Nov-18 08:30N 51°30' W 002°44'1 2.0
2017-Nov-18 08:00N 51°30' W 002°42'0 0.4
2017-Nov-18 07:30N 51°30' W 002°42'0 0.0
2017-Nov-18 07:00N 51°30' W 002°42'0 0.0
2017-Nov-18 06:30N 51°30' W 002°42'0 0.0
2017-Nov-18 05:59N 51°30' W 002°42'0 0.0
2017-Nov-18 05:29N 51°30' W 002°42'0 0.0
2017-Nov-18 04:59N 51°30' W 002°42'0 0.0
2017-Nov-18 04:29N 51°30' W 002°42'0 0.0
2017-Nov-18 03:59N 51°30' W 002°42'0 0.0
2017-Nov-18 03:29N 51°30' W 002°42'0 0.0
2017-Nov-18 02:59N 51°30' W 002°42'0 0.0
2017-Nov-18 02:29N 51°30' W 002°42'0 0.0
2017-Nov-18 01:59N 51°30' W 002°42'0 0.0
2017-Nov-18 01:26N 51°30' W 002°42'0 0.0
2017-Nov-18 00:59N 51°30' W 002°42'0 0.0
2017-Nov-18 00:29N 51°30' W 002°42'0 0.0
2017-Nov-17 23:59N 51°30' W 002°42'0 0.0
2017-Nov-17 23:29N 51°30' W 002°42'0 0.0
2017-Nov-17 22:56N 51°30' W 002°42'0 0.0
2017-Nov-17 22:29N 51°30' W 002°42'0 0.0
2017-Nov-17 21:59N 51°30' W 002°42'0 0.0
2017-Nov-17 21:29N 51°30' W 002°42'0 0.0
2017-Nov-17 20:59N 51°30' W 002°42'0 0.0
2017-Nov-17 20:26N 51°30' W 002°42'0 0.0
2017-Nov-17 19:59N 51°30' W 002°42'0 0.0
2017-Nov-17 19:29N 51°30' W 002°42'0 0.0
2017-Nov-17 18:59N 51°30' W 002°42'0 0.0
2017-Nov-17 18:29N 51°30' W 002°42'0 0.0
2017-Nov-17 17:59N 51°30' W 002°42'0 0.0
2017-Nov-17 17:29N 51°30' W 002°42'0 0.5
2017-Nov-17 17:00N 51°30' W 002°42'0 0.8
2017-Nov-17 16:30N 51°30' W 002°43'2 3.6
2017-Nov-17 16:00N 51°30' W 002°46'510.2
2017-Nov-17 15:30N 51°28' W 002°53'5 9.9
2017-Nov-17 15:00N 51°26' W 003°01'5410.0
2017-Nov-17 09:36N 51°26' W 004°27'1 9.6
2017-Nov-17 09:29N 51°27' W 004°29'5 9.6
2017-Nov-17 08:59N 51°27' W 004°36'5 9.6
2017-Nov-17 08:30N 51°28' W 004°44'5 9.4
2017-Nov-17 08:00N 51°29' W 004°51'4 7.2
2017-Nov-17 07:30N 51°30' W 004°57'4 7.1
2017-Nov-17 07:00N 51°31' W 005°02'4 7.2
2017-Nov-17 06:30N 51°33' W 005°07'4 7.8
2017-Nov-17 06:00N 51°35' W 005°12'4 8.4
2017-Nov-17 05:30N 51°38' W 005°17'4 7.9
2017-Nov-17 05:00N 51°40' W 005°23'4 7.2
2017-Nov-17 04:30N 51°43' W 005°24'4 8.4
2017-Nov-17 04:00N 51°47' W 005°26'13010.0
2017-Nov-16 15:04N 53°56' W 005°57'110.0
2017-Nov-16 14:56N 53°57' W 005°58'410.0
2017-Nov-16 14:30N 54°00' W 006°02'912.4
2017-Nov-16 13:46N 54°06' W 006°15'1 0.1
2017-Nov-16 06:02N 54°06' W 006°16'0 1.4
2017-Nov-16 05:56N 54°06' W 006°15'3 8.3
2017-Nov-16 05:31N 54°04' W 006°11'611.9
2017-Nov-16 05:00N 54°00' W 006°02'4 7.3
2017-Nov-16 04:31N 53°58' W 005°58'4 7.3
2017-Nov-16 04:01N 53°54' W 005°56'4 7.9
2017-Nov-16 03:31N 53°50' W 005°55'4 7.9
2017-Nov-16 03:00N 53°46' W 005°53'5 8.3
2017-Nov-16 02:26N 53°42' W 005°51'12110.4
2017-Nov-15 14:48N 51°43' W 005°23'413.0
2017-Nov-15 14:30N 51°39' W 005°19'612.5
2017-Nov-15 14:00N 51°35' W 005°12'612.1
2017-Nov-15 13:30N 51°32' W 005°04'611.7
2017-Nov-15 13:00N 51°29' W 004°56'612.1
2017-Nov-15 12:30N 51°26' W 004°47'611.4
2017-Nov-15 12:00N 51°28' W 004°39'712.3
2017-Nov-15 11:24N 51°26' W 004°27'1413.0
2017-Nov-15 10:19N 51°24' W 004°05'513.8
2017-Nov-15 09:56N 51°23' W 003°56'1114.7
2017-Nov-15 09:13N 51°21' W 003°40'1214.8
2017-Nov-15 08:25N 51°21' W 003°21'512.4
2017-Nov-15 08:00N 51°21' W 003°13'714.6
2017-Nov-15 07:31N 51°25' W 003°02'816.3
2017-Nov-15 07:01N 51°29' W 002°51'510.6
2017-Nov-15 06:30N 51°30' W 002°43'0 0.6
2017-Nov-15 06:00N 51°30' W 002°42'0 0.0
2017-Nov-15 05:29N 51°30' W 002°42'0 0.0
2017-Nov-15 04:56N 51°30' W 002°42'0 0.0
2017-Nov-15 04:29N 51°30' W 002°42'0 0.0
2017-Nov-15 03:59N 51°30' W 002°42'0 0.0
2017-Nov-15 03:29N 51°30' W 002°42'0 0.0
2017-Nov-15 02:56N 51°30' W 002°42'0 0.0
2017-Nov-15 02:29N 51°30' W 002°42'0 0.0
2017-Nov-15 01:59N 51°30' W 002°42'0 0.0
2017-Nov-15 01:29N 51°30' W 002°42'0 0.0
2017-Nov-15 00:59N 51°30' W 002°42'0 0.0
2017-Nov-15 00:29N 51°30' W 002°42'0 0.0
2017-Nov-14 23:59N 51°30' W 002°42'0 0.0
2017-Nov-14 23:29N 51°30' W 002°42'0 0.0
2017-Nov-14 22:59N 51°30' W 002°42'0 0.0
2017-Nov-14 22:23N 51°30' W 002°42'0 0.0
2017-Nov-14 21:59N 51°30' W 002°42'0 0.0
2017-Nov-14 21:29N 51°30' W 002°42'0 0.0
2017-Nov-14 20:59N 51°30' W 002°42'0 0.0
2017-Nov-14 20:29N 51°30' W 002°42'0 0.0
2017-Nov-14 19:59N 51°30' W 002°42'0 0.0
2017-Nov-14 19:23N 51°30' W 002°42'0 0.0
2017-Nov-14 18:59N 51°30' W 002°42'0 0.0
2017-Nov-14 18:29N 51°30' W 002°42'0 0.0
2017-Nov-14 17:59N 51°30' W 002°42'0 0.0
2017-Nov-14 17:26N 51°30' W 002°42'0 0.0
2017-Nov-14 16:59N 51°30' W 002°42'0 0.0
2017-Nov-14 16:29N 51°30' W 002°42'0 0.0
2017-Nov-14 15:56N 51°30' W 002°42'0 0.0
2017-Nov-14 15:29N 51°30' W 002°42'0 0.3
2017-Nov-14 15:00N 51°30' W 002°42'0 0.6
2017-Nov-14 14:30N 51°30' W 002°43'0 0.7
2017-Nov-14 14:00N 51°31' W 002°43'2 4.3
2017-Nov-14 13:30N 51°30' W 002°46'713.5
2017-Nov-14 13:01N 51°27' W 002°56'5811.1
2017-Nov-14 07:47N 51°27' W 004°30'311.2
2017-Nov-14 07:30N 51°27' W 004°34'510.8
2017-Nov-14 07:00N 51°28' W 004°43'611.1
2017-Nov-14 06:30N 51°29' W 004°52'611.1
2017-Nov-14 06:00N 51°30' W 005°00'510.8
2017-Nov-14 05:30N 51°33' W 005°07'510.7
2017-Nov-14 05:00N 51°36' W 005°14'510.7
2017-Nov-14 04:30N 51°39' W 005°21'5 9.5
2017-Nov-14 04:00N 51°44' W 005°24'  
Track history (hours):
 
Tides and Currents Weather Stations Pressure Air Temp Water Temp Dewpoint Dewpoint Depression Visibility Wind Speed Wind Dir Waves Ship Positions

Greta

Last reported at 2017-Nov-23 17:53 UTC. Time now 2017-Nov-23 18:42 UTC.
Position N 51°23' W 003°56'.

Length 100 m; draft 4.4 m.

Type: Cargo ship. MMSI: 377793000.

Date/timePositionNaut miles runAvg speedWind from/ knotsBaromVisibWave heightAir tempDewpointWater temp
2017-Nov-23 17:53N 51°23' W 003°56'3 7.2
2017-Nov-23 17:30N 51°22' W 003°52'5 6.9
2017-Nov-23 16:42N 51°21' W 003°43'2 7.7
2017-Nov-23 16:26N 51°20' W 003°40'  
2017-Nov-19 22:32N 53°34' W 005°56'0 9.9
2017-Nov-19 22:29N 53°34' W 005°57'1710.8
2017-Nov-19 20:58N 53°51' W 005°60'511.9
2017-Nov-19 20:30N 53°56' W 005°60'6 9.8
2017-Nov-19 19:53N 54°01' W 006°05'510.3
2017-Nov-19 19:24N 54°04' W 006°12'3 0.6
2017-Nov-19 14:29N 54°06' W 006°16'3 7.3
2017-Nov-19 14:00N 54°04' W 006°11'611.8
2017-Nov-19 13:30N 54°00' W 006°03'510.8
2017-Nov-19 13:00N 53°55' W 005°60'713.4
2017-Nov-19 12:30N 53°49' W 005°59'713.5
2017-Nov-19 12:00N 53°42' W 005°59'713.5
2017-Nov-19 11:28N 53°35' W 005°59'70 5.5
2017-Nov-18 22:52N 52°26' W 005°41'3 8.9
2017-Nov-18 22:30N 52°23' W 005°40'5 9.1
2017-Nov-18 22:00N 52°18' W 005°38'5 9.6
2017-Nov-18 21:29N 52°13' W 005°37'3211.0
2017-Nov-18 18:36N 51°43' W 005°25'212.3
2017-Nov-18 18:28N 51°41' W 005°25'511.2
2017-Nov-18 18:00N 51°38' W 005°18'510.4
2017-Nov-18 17:30N 51°35' W 005°11'510.4
2017-Nov-18 17:00N 51°32' W 005°04'5 9.7
2017-Nov-18 16:30N 51°30' W 004°57'5 9.3
2017-Nov-18 16:01N 51°29' W 004°50'6 9.6
2017-Nov-18 15:26N 51°28' W 004°41'30 9.4
2017-Nov-18 12:17N 51°22' W 003°55'4 9.8
2017-Nov-18 11:52N 51°22' W 003°48'1811.3
2017-Nov-18 10:16N 51°21' W 003°19'312.3
2017-Nov-18 10:00N 51°21' W 003°14'611.5
2017-Nov-18 09:30N 51°23' W 003°05'815.2
2017-Nov-18 09:01N 51°27' W 002°55'815.1
2017-Nov-18 08:30N 51°30' W 002°44'1 2.0
2017-Nov-18 08:00N 51°30' W 002°42'0 0.4
2017-Nov-18 07:30N 51°30' W 002°42'0 0.0
2017-Nov-18 07:00N 51°30' W 002°42'0 0.0
2017-Nov-18 06:30N 51°30' W 002°42'0 0.0
2017-Nov-18 05:59N 51°30' W 002°42'0 0.0
2017-Nov-18 05:29N 51°30' W 002°42'0 0.0
2017-Nov-18 04:59N 51°30' W 002°42'0 0.0
2017-Nov-18 04:29N 51°30' W 002°42'0 0.0
2017-Nov-18 03:59N 51°30' W 002°42'0 0.0
2017-Nov-18 03:29N 51°30' W 002°42'0 0.0
2017-Nov-18 02:59N 51°30' W 002°42'0 0.0
2017-Nov-18 02:29N 51°30' W 002°42'0 0.0
2017-Nov-18 01:59N 51°30' W 002°42'0 0.0
2017-Nov-18 01:26N 51°30' W 002°42'0 0.0
2017-Nov-18 00:59N 51°30' W 002°42'0 0.0
2017-Nov-18 00:29N 51°30' W 002°42'0 0.0
2017-Nov-17 23:59N 51°30' W 002°42'0 0.0
2017-Nov-17 23:29N 51°30' W 002°42'0 0.0
2017-Nov-17 22:56N 51°30' W 002°42'0 0.0
2017-Nov-17 22:29N 51°30' W 002°42'0 0.0
2017-Nov-17 21:59N 51°30' W 002°42'0 0.0
2017-Nov-17 21:29N 51°30' W 002°42'0 0.0
2017-Nov-17 20:59N 51°30' W 002°42'0 0.0
2017-Nov-17 20:26N 51°30' W 002°42'0 0.0
2017-Nov-17 19:59N 51°30' W 002°42'0 0.0
2017-Nov-17 19:29N 51°30' W 002°42'0 0.0
2017-Nov-17 18:59N 51°30' W 002°42'0 0.0
2017-Nov-17 18:29N 51°30' W 002°42'0 0.0
2017-Nov-17 17:59N 51°30' W 002°42'0 0.0
2017-Nov-17 17:29N 51°30' W 002°42'0 0.5
2017-Nov-17 17:00N 51°30' W 002°42'0 0.8
2017-Nov-17 16:30N 51°30' W 002°43'2 3.6
2017-Nov-17 16:00N 51°30' W 002°46'510.2
2017-Nov-17 15:30N 51°28' W 002°53'5 9.9
2017-Nov-17 15:00N 51°26' W 003°01'5410.0
2017-Nov-17 09:36N 51°26' W 004°27'1 9.6
2017-Nov-17 09:29N 51°27' W 004°29'5 9.6
2017-Nov-17 08:59N 51°27' W 004°36'5 9.6
2017-Nov-17 08:30N 51°28' W 004°44'5 9.4
2017-Nov-17 08:00N 51°29' W 004°51'4 7.2
2017-Nov-17 07:30N 51°30' W 004°57'4 7.1
2017-Nov-17 07:00N 51°31' W 005°02'4 7.2
2017-Nov-17 06:30N 51°33' W 005°07'4 7.8
2017-Nov-17 06:00N 51°35' W 005°12'4 8.4
2017-Nov-17 05:30N 51°38' W 005°17'4 7.9
2017-Nov-17 05:00N 51°40' W 005°23'4 7.2
2017-Nov-17 04:30N 51°43' W 005°24'4 8.4
2017-Nov-17 04:00N 51°47' W 005°26'13010.0
2017-Nov-16 15:04N 53°56' W 005°57'110.0
2017-Nov-16 14:56N 53°57' W 005°58'410.0
2017-Nov-16 14:30N 54°00' W 006°02'912.4
2017-Nov-16 13:46N 54°06' W 006°15'1 0.1
2017-Nov-16 06:02N 54°06' W 006°16'0 1.4
2017-Nov-16 05:56N 54°06' W 006°15'3 8.3
2017-Nov-16 05:31N 54°04' W 006°11'611.9
2017-Nov-16 05:00N 54°00' W 006°02'4 7.3
2017-Nov-16 04:31N 53°58' W 005°58'4 7.3
2017-Nov-16 04:01N 53°54' W 005°56'4 7.9
2017-Nov-16 03:31N 53°50' W 005°55'4 7.9
2017-Nov-16 03:00N 53°46' W 005°53'5 8.3
2017-Nov-16 02:26N 53°42' W 005°51'12110.4
2017-Nov-15 14:48N 51°43' W 005°23'413.0
2017-Nov-15 14:30N 51°39' W 005°19'612.5
2017-Nov-15 14:00N 51°35' W 005°12'612.1
2017-Nov-15 13:30N 51°32' W 005°04'611.7
2017-Nov-15 13:00N 51°29' W 004°56'612.1
2017-Nov-15 12:30N 51°26' W 004°47'611.4
2017-Nov-15 12:00N 51°28' W 004°39'712.3
2017-Nov-15 11:24N 51°26' W 004°27'1413.0
2017-Nov-15 10:19N 51°24' W 004°05'513.8
2017-Nov-15 09:56N 51°23' W 003°56'1114.7
2017-Nov-15 09:13N 51°21' W 003°40'1214.8
2017-Nov-15 08:25N 51°21' W 003°21'512.4
2017-Nov-15 08:00N 51°21' W 003°13'714.6
2017-Nov-15 07:31N 51°25' W 003°02'816.3
2017-Nov-15 07:01N 51°29' W 002°51'510.6
2017-Nov-15 06:30N 51°30' W 002°43'0 0.6
2017-Nov-15 06:00N 51°30' W 002°42'0 0.0
2017-Nov-15 05:29N 51°30' W 002°42'0 0.0
2017-Nov-15 04:56N 51°30' W 002°42'0 0.0
2017-Nov-15 04:29N 51°30' W 002°42'0 0.0
2017-Nov-15 03:59N 51°30' W 002°42'0 0.0
2017-Nov-15 03:29N 51°30' W 002°42'0 0.0
2017-Nov-15 02:56N 51°30' W 002°42'0 0.0
2017-Nov-15 02:29N 51°30' W 002°42'0 0.0
2017-Nov-15 01:59N 51°30' W 002°42'0 0.0
2017-Nov-15 01:29N 51°30' W 002°42'0 0.0
2017-Nov-15 00:59N 51°30' W 002°42'0 0.0
2017-Nov-15 00:29N 51°30' W 002°42'0 0.0
2017-Nov-14 23:59N 51°30' W 002°42'0 0.0
2017-Nov-14 23:29N 51°30' W 002°42'0 0.0
2017-Nov-14 22:59N 51°30' W 002°42'0 0.0
2017-Nov-14 22:23N 51°30' W 002°42'0 0.0
2017-Nov-14 21:59N 51°30' W 002°42'0 0.0
2017-Nov-14 21:29N 51°30' W 002°42'0 0.0
2017-Nov-14 20:59N 51°30' W 002°42'0 0.0
2017-Nov-14 20:29N 51°30' W 002°42'0 0.0
2017-Nov-14 19:59N 51°30' W 002°42'0 0.0
2017-Nov-14 19:23N 51°30' W 002°42'0 0.0
2017-Nov-14 18:59N 51°30' W 002°42'0 0.0
2017-Nov-14 18:29N 51°30' W 002°42'0 0.0
2017-Nov-14 17:59N 51°30' W 002°42'0 0.0
2017-Nov-14 17:26N 51°30' W 002°42'0 0.0
2017-Nov-14 16:59N 51°30' W 002°42'0 0.0
2017-Nov-14 16:29N 51°30' W 002°42'0 0.0
2017-Nov-14 15:56N 51°30' W 002°42'0 0.0
2017-Nov-14 15:29N 51°30' W 002°42'0 0.3
2017-Nov-14 15:00N 51°30' W 002°42'0 0.6
2017-Nov-14 14:30N 51°30' W 002°43'0 0.7
2017-Nov-14 14:00N 51°31' W 002°43'2 4.3
2017-Nov-14 13:30N 51°30' W 002°46'713.5
2017-Nov-14 13:01N 51°27' W 002°56'5811.1
2017-Nov-14 07:47N 51°27' W 004°30'311.2
2017-Nov-14 07:30N 51°27' W 004°34'510.8
2017-Nov-14 07:00N 51°28' W 004°43'611.1
2017-Nov-14 06:30N 51°29' W 004°52'611.1
2017-Nov-14 06:00N 51°30' W 005°00'510.8
2017-Nov-14 05:30N 51°33' W 005°07'510.7
2017-Nov-14 05:00N 51°36' W 005°14'510.7
2017-Nov-14 04:30N 51°39' W 005°21'5 9.5
2017-Nov-14 04:00N 51°44' W 005°24'  

Dump ship's entire track history